Wainwright, Canada
Current Conditions -  °F | °C
As of 2:00 AM on Sunday 26 Oct 2014 (Local Time) from CYLL Reporting Station
Clear Clear  
Wind Chill: 29°   Ceiling: Unl
Heat Index: 37°   Visibility: 9mi
Dew Point: 27°   Wind: 14mph
Humidity: 65%   Direction: 100°E
Pressure: 29.52"   Gusts: NA
Location:  52.83°N, 110.87°W
Report Text: CYLL 260800Z AUTO 10012KT 9SM CLR 03/M03 A2952 RMK PRESFR SLP019
Loading
Personal Weather Stations






























Interactive Weather Map
Tropical Storm Tracking
New forecast layout! Learn more

10-Day Weather Forecast

Advertisements
Track Severe Weather on mobile